This is the latest recevied weather packets stored in our database for station/object SP4MAZ-13. If no packets are shown the sender has not sent any weather packets the latest 10 day(s).
| Time | Temp. | Humidity | Pressure | Rain* | Wind** | Luminosity | Snow |
|---|---|---|---|---|---|---|---|
| 1778087412 | 17.78° C | 61% | 2147.4 hPa | - | - | - | - |
| 1778087111 | 18.33° C | 59% | 2147.4 hPa | - | - | - | - |
| 1778086808 | 18.33° C | 60% | 2147.4 hPa | - | - | - | - |
| 1778086507 | 18.33° C | 60% | 2147.4 hPa | - | - | - | - |
| 1778086204 | 18.33° C | 63% | 2147.4 hPa | - | - | - | - |
| 1778085900 | 18.33° C | 65% | 2147.4 hPa | - | - | - | - |
| 1778085597 | 18.33° C | 64% | 2147.4 hPa | - | - | - | - |
| 1778085293 | 18.33° C | 64% | 2147.4 hPa | - | - | - | - |
| 1778084990 | 18.33° C | 63% | 2147.4 hPa | - | - | - | - |
| 1778084687 | 18.89° C | 61% | 2147.4 hPa | - | - | - | - |
| 1778084383 | 19.44° C | 61% | 2147.4 hPa | - | - | - | - |
| 1778084080 | 20.56° C | 56% | 2147.4 hPa | - | - | - | - |
| 1778083779 | 21.11° C | 53% | 2147.4 hPa | - | - | - | - |
| 1778083475 | 21.67° C | 51% | 2147.4 hPa | - | - | - | - |
| 1778083173 | 22.22° C | 51% | 2147.4 hPa | - | - | - | - |
| 1778082871 | 22.22° C | 50% | 2147.4 hPa | - | - | - | - |
| 1778082568 | 21.11° C | 58% | 2147.4 hPa | - | - | - | - |
| 1778082265 | 20.56° C | 58% | 2147.4 hPa | - | - | - | - |
| 1778081961 | 20.56° C | 59% | 2147.4 hPa | - | - | - | - |
| 1778081657 | 20.56° C | 58% | 2147.4 hPa | - | - | - | - |
| 1778081356 | 21.11° C | 57% | 2147.4 hPa | - | - | - | - |
| 1778081053 | 20.56° C | 60% | 2147.4 hPa | - | - | - | - |
| 1778080749 | 19.44° C | 66% | 2147.4 hPa | - | - | - | - |
| 1778080446 | 19.44° C | 67% | 2147.4 hPa | - | - | - | - |
| 1778080142 | 18.89° C | 70% | 2147.4 hPa | - | - | - | - |
* Rain since midnight (hover to see other rain measurements)
** Current wind speed in m/s (hover to see current wind gust speed)